This is the latest recevied weather packets stored in our database for station/object K7SKM. If no packets are shown the sender has not sent any weather packets the latest 10 day(s).
| Time | Temp. | Humidity | Pressure | Rain* | Wind** | Luminosity | Snow |
|---|---|---|---|---|---|---|---|
| 1777764284 | 26.11° C | 42% | 1018 hPa | 0 mm | - | 389 W/m² | - |
| 1777763981 | 26.67° C | 43% | 1018 hPa | 0 mm | - | 395 W/m² | - |
| 1777763678 | 25.56° C | 44% | 1018 hPa | 0 mm | - | 396 W/m² | - |
| 1777763376 | 25.56° C | 45% | 1018 hPa | 0 mm | - | 397 W/m² | - |
| 1777763074 | 25.56° C | 44% | 1018 hPa | 0 mm | - | 406 W/m² | - |
| 1777762772 | 26.11° C | 44% | 1018.2 hPa | 0 mm | - | 406 W/m² | - |
| 1777762467 | 26.11° C | 45% | 1018.4 hPa | 0 mm | - | 405 W/m² | - |
| 1777762164 | 25.56° C | 45% | 1018.2 hPa | 0 mm | - | 227 W/m² | - |
| 1777761860 | 25.56° C | 44% | 1018.3 hPa | 0 mm | - | 287 W/m² | - |
| 1777761557 | 25.56° C | 45% | 1018.4 hPa | 0 mm | - | 304 W/m² | - |
| 1777761256 | 25.56° C | 44% | 1018.7 hPa | 0 mm | - | 412 W/m² | - |
| 1777760954 | 25.56° C | 45% | 1018.6 hPa | 0 mm | - | 403 W/m² | - |
| 1777760650 | 25° C | 47% | 1018.6 hPa | 0 mm | - | 395 W/m² | - |
| 1777760345 | 25° C | 46% | 1018.7 hPa | 0 mm | - | 390 W/m² | - |
| 1777760042 | 23.89° C | 48% | 1018.7 hPa | 0 mm | - | 387 W/m² | - |
| 1777759739 | 25° C | 46% | 1018.8 hPa | 0 mm | - | 386 W/m² | - |
| 1777759435 | 23.89° C | 47% | 1018.6 hPa | 0 mm | - | 385 W/m² | - |
| 1777759132 | 23.89° C | 48% | 1018.7 hPa | 0 mm | - | 376 W/m² | - |
| 1777758830 | 25° C | 47% | 1018.9 hPa | 0 mm | - | 345 W/m² | - |
| 1777758526 | 25.56° C | 46% | 1018.9 hPa | 0 mm | - | 420 W/m² | - |
| 1777758223 | 24.44° C | 47% | 1019 hPa | 0 mm | - | 432 W/m² | - |
| 1777757920 | 24.44° C | 48% | 1019 hPa | 0 mm | - | 434 W/m² | - |
| 1777757617 | 24.44° C | 48% | 1019 hPa | 0 mm | - | 441 W/m² | - |
| 1777757316 | 23.89° C | 50% | 1019 hPa | 0 mm | - | 436 W/m² | - |
| 1777757014 | 23.89° C | 47% | 1019.2 hPa | 0 mm | - | 437 W/m² | - |
* Rain latest hour (hover to see other rain measurements)
** Current wind speed in m/s (hover to see current wind gust speed)